createdAt,value
2022-09-21T00:01:14.730Z,1.70
2022-09-21T00:03:43.546Z,1.67
2022-09-21T00:06:17.604Z,1.63
2022-09-21T00:08:46.043Z,2.00
2022-09-21T00:11:14.505Z,2.10
2022-09-21T00:13:41.934Z,2.10
2022-09-21T00:16:09.838Z,1.93
2022-09-21T00:18:36.717Z,1.70
2022-09-21T00:21:08.581Z,1.67
2022-09-21T00:23:36.643Z,1.80
2022-09-21T00:26:26.897Z,1.90
2022-09-21T00:28:59.987Z,2.23
2022-09-21T00:31:28.106Z,1.80
2022-09-21T00:33:54.931Z,1.87
2022-09-21T00:36:24.773Z,1.90
2022-09-21T00:38:53.977Z,2.10
2022-09-21T00:41:21.362Z,1.80
2022-09-21T00:44:08.178Z,1.70
2022-09-21T00:46:39.195Z,1.60
2022-09-21T00:49:06.239Z,1.97
2022-09-21T00:51:32.954Z,2.20
2022-09-21T00:54:04.887Z,1.80
2022-09-21T00:56:31.621Z,1.87
2022-09-21T00:58:58.694Z,1.90
2022-09-21T01:01:25.536Z,1.70
2022-09-21T01:03:55.585Z,1.70
2022-09-21T01:06:22.780Z,1.90
2022-09-21T01:08:57.313Z,1.90
2022-09-21T01:11:39.368Z,1.70
2022-09-21T01:14:17.884Z,1.80
2022-09-21T01:17:06.961Z,2.00
2022-09-21T01:19:46.560Z,1.73
2022-09-21T01:22:43.244Z,1.97
2022-09-21T01:25:33.027Z,1.90
2022-09-21T01:28:24.340Z,1.60
2022-09-21T01:30:53.614Z,1.80
2022-09-21T01:33:26.140Z,1.80
2022-09-21T01:36:08.832Z,1.50
2022-09-21T01:38:43.895Z,1.80
2022-09-21T01:41:15.481Z,1.83
2022-09-21T01:43:55.600Z,1.40
2022-09-21T01:46:29.241Z,2.00
2022-09-21T01:49:00.893Z,1.60
2022-09-21T01:51:28.988Z,1.60
2022-09-21T01:54:01.609Z,1.50
2022-09-21T01:56:38.020Z,1.80
2022-09-21T01:59:10.671Z,1.60
2022-09-21T02:01:47.892Z,1.70
2022-09-21T02:04:14.905Z,1.70
2022-09-21T02:06:45.221Z,1.70
2022-09-21T02:09:12.734Z,1.60
2022-09-21T02:11:43.632Z,1.97
2022-09-21T02:14:13.651Z,1.80
2022-09-21T02:16:49.058Z,1.63
2022-09-21T02:19:48.441Z,1.77
2022-09-21T02:22:33.268Z,1.70
2022-09-21T02:25:06.872Z,1.60
2022-09-21T02:27:42.908Z,1.60
2022-09-21T02:30:16.152Z,1.70
2022-09-21T02:32:52.018Z,1.70
2022-09-21T02:35:28.393Z,1.80
2022-09-21T02:38:02.447Z,1.80
2022-09-21T02:40:30.768Z,1.93
2022-09-21T02:43:06.060Z,1.80
2022-09-21T02:45:41.727Z,1.67
2022-09-21T02:48:40.211Z,1.87
2022-09-21T02:51:14.110Z,1.70
2022-09-21T02:53:42.195Z,1.83
2022-09-21T02:56:11.600Z,1.73
2022-09-21T02:58:42.813Z,1.87
2022-09-21T03:01:12.829Z,1.93
2022-09-21T03:03:39.502Z,1.77
2022-09-21T03:06:06.415Z,2.00
2022-09-21T03:08:33.314Z,1.70
2022-09-21T03:11:00.096Z,1.80
2022-09-21T03:13:26.864Z,1.80
2022-09-21T03:16:03.587Z,1.63
2022-09-21T03:18:31.333Z,1.77
2022-09-21T03:20:58.026Z,2.00
2022-09-21T03:23:25.393Z,1.80
2022-09-21T03:25:52.906Z,1.90
2022-09-21T03:28:20.008Z,2.23
2022-09-21T03:30:48.903Z,1.97
2022-09-21T03:33:16.341Z,2.00
2022-09-21T03:35:43.744Z,1.80
2022-09-21T03:38:10.549Z,1.77
2022-09-21T03:40:37.355Z,1.90
2022-09-21T03:43:04.214Z,1.70
2022-09-21T03:45:30.945Z,2.10
2022-09-21T03:47:59.284Z,2.03
2022-09-21T03:50:28.735Z,1.77
2022-09-21T03:52:56.436Z,1.70
2022-09-21T03:55:23.278Z,1.90
2022-09-21T03:57:50.003Z,1.67
2022-09-21T04:00:16.901Z,1.90
2022-09-21T04:02:43.966Z,1.93
2022-09-21T04:05:14.713Z,1.60
2022-09-21T04:07:42.769Z,1.50
2022-09-21T04:10:13.038Z,1.90
2022-09-21T04:12:43.790Z,1.60
2022-09-21T04:15:19.540Z,1.67
2022-09-21T04:17:50.197Z,1.50
2022-09-21T04:20:17.078Z,1.97
2022-09-21T04:22:45.153Z,1.60
2022-09-21T04:25:13.053Z,1.80
2022-09-21T04:27:40.337Z,2.10
2022-09-21T04:30:08.487Z,1.80
2022-09-21T04:32:35.187Z,2.10
2022-09-21T04:35:02.059Z,1.60
2022-09-21T04:37:28.757Z,1.80
2022-09-21T04:39:55.950Z,1.70
2022-09-21T04:42:23.287Z,2.07
2022-09-21T04:44:51.473Z,1.70
2022-09-21T04:47:18.175Z,1.83
2022-09-21T04:49:45.000Z,1.70
2022-09-21T04:52:13.738Z,1.70
2022-09-21T04:54:43.647Z,1.80
2022-09-21T04:57:10.284Z,1.83
2022-09-21T04:59:36.926Z,1.67
2022-09-21T05:02:03.741Z,2.03
2022-09-21T05:04:30.463Z,1.50
2022-09-21T05:06:59.368Z,1.57
2022-09-21T05:09:44.782Z,1.63
2022-09-21T05:12:11.419Z,1.80
2022-09-21T05:14:38.050Z,2.00
2022-09-21T05:17:04.794Z,1.57
2022-09-21T05:19:31.443Z,1.83
2022-09-21T05:21:58.098Z,1.90
2022-09-21T05:24:24.784Z,1.60
2022-09-21T05:26:52.453Z,1.83
2022-09-21T05:29:19.407Z,1.63
2022-09-21T05:31:51.713Z,1.90
2022-09-21T05:34:27.378Z,1.70
2022-09-21T05:37:12.915Z,1.90
2022-09-21T05:39:39.848Z,2.00
2022-09-21T05:42:07.072Z,1.90
2022-09-21T05:44:34.154Z,1.90
2022-09-21T05:47:23.216Z,1.73
2022-09-21T05:50:02.511Z,1.90
2022-09-21T05:52:35.844Z,2.20
2022-09-21T05:55:25.198Z,2.47
2022-09-21T05:58:02.580Z,2.83
2022-09-21T06:00:42.625Z,2.27
2022-09-21T06:03:26.969Z,2.33
2022-09-21T06:05:53.677Z,2.40
2022-09-21T06:08:20.574Z,2.00
2022-09-21T06:10:47.338Z,2.60
2022-09-21T06:13:14.526Z,2.50
2022-09-21T06:15:42.216Z,3.17
2022-09-21T06:18:10.655Z,2.97
2022-09-21T06:20:39.883Z,2.77
2022-09-21T06:23:09.440Z,2.77
2022-09-21T06:25:36.829Z,3.13
2022-09-21T06:28:05.994Z,2.67
2022-09-21T06:30:34.950Z,2.77
2022-09-21T06:33:02.947Z,2.70
2022-09-21T06:35:31.156Z,2.67
2022-09-21T06:38:02.852Z,2.70
2022-09-21T06:40:30.943Z,2.57
2022-09-21T06:42:59.056Z,2.70
2022-09-21T06:45:26.844Z,2.83
2022-09-21T06:47:53.610Z,2.80
2022-09-21T06:50:20.810Z,2.80
2022-09-21T06:52:47.670Z,2.80
2022-09-21T06:55:14.937Z,3.80
2022-09-21T06:57:41.803Z,2.90
2022-09-21T07:00:10.685Z,2.83
2022-09-21T07:02:37.780Z,2.87
2022-09-21T07:05:05.093Z,3.40
2022-09-21T07:07:32.079Z,3.40
2022-09-21T07:10:07.623Z,3.37
2022-09-21T07:12:36.460Z,3.13
2022-09-21T07:15:04.485Z,4.47
2022-09-21T07:17:36.121Z,3.83
2022-09-21T07:20:04.636Z,3.90
2022-09-21T07:22:32.764Z,3.80
2022-09-21T07:25:00.223Z,4.60
2022-09-21T07:27:30.235Z,5.63
2022-09-21T07:29:56.985Z,4.70
2022-09-21T07:32:23.993Z,5.30
2022-09-21T07:34:50.673Z,4.60
2022-09-21T07:37:17.419Z,4.53
2022-09-21T07:39:44.158Z,4.40
2022-09-21T07:42:11.143Z,4.17
2022-09-21T07:44:37.748Z,4.30
2022-09-21T07:47:04.551Z,3.70
2022-09-21T07:49:31.296Z,4.53
2022-09-21T07:52:03.511Z,3.83
2022-09-21T07:54:33.731Z,3.23
2022-09-21T07:57:18.866Z,3.30
2022-09-21T07:59:45.959Z,3.40
2022-09-21T08:02:12.886Z,2.40
2022-09-21T08:04:39.647Z,2.67
2022-09-21T08:07:06.307Z,2.43
2022-09-21T08:09:32.956Z,2.60
2022-09-21T08:12:01.488Z,2.50
2022-09-21T08:14:29.262Z,2.50
2022-09-21T08:16:56.070Z,2.00
2022-09-21T08:19:25.773Z,2.37
2022-09-21T08:21:57.233Z,2.30
2022-09-21T08:24:26.825Z,2.07
2022-09-21T08:26:55.861Z,2.30
2022-09-21T08:29:43.822Z,2.50
2022-09-21T08:32:22.866Z,2.30
2022-09-21T08:34:57.315Z,2.03
2022-09-21T08:37:24.213Z,1.60
2022-09-21T08:39:50.961Z,1.57
2022-09-21T08:42:47.547Z,1.03
2022-09-21T08:45:19.625Z,1.60
2022-09-21T08:47:51.878Z,1.50
2022-09-21T08:50:30.640Z,1.50
2022-09-21T08:53:34.547Z,1.40
2022-09-21T08:56:02.914Z,1.30
2022-09-21T08:58:32.288Z,1.30
2022-09-21T09:01:24.803Z,1.10
2022-09-21T09:04:28.358Z,1.20
2022-09-21T09:07:21.313Z,1.17
2022-09-21T09:10:20.372Z,0.90
2022-09-21T09:12:56.181Z,0.70
2022-09-21T09:15:32.756Z,1.07
2022-09-21T09:18:12.296Z,0.80
2022-09-21T09:20:49.141Z,0.90
2022-09-21T09:23:22.756Z,0.90
2022-09-21T09:25:54.082Z,1.23
2022-09-21T09:28:27.915Z,1.00
2022-09-21T09:31:02.491Z,0.90
2022-09-21T09:33:56.630Z,1.20
2022-09-21T09:36:53.803Z,0.97
2022-09-21T09:39:16.611Z,0.70
2022-09-21T09:41:56.436Z,0.53
2022-09-21T09:44:29.100Z,0.87
2022-09-21T09:47:14.578Z,0.80
2022-09-21T09:49:59.943Z,0.50
2022-09-21T09:52:27.777Z,0.77
2022-09-21T09:54:57.266Z,0.70
2022-09-21T09:57:33.252Z,0.70
2022-09-21T10:00:09.208Z,0.93
2022-09-21T10:02:49.981Z,0.80
2022-09-21T10:05:24.766Z,0.60
2022-09-21T10:07:52.565Z,0.43
2022-09-21T10:10:37.232Z,0.50
2022-09-21T10:13:39.660Z,0.60
2022-09-21T10:16:22.119Z,0.37
2022-09-21T10:19:01.728Z,0.73
2022-09-21T10:21:51.873Z,0.40
2022-09-21T10:24:25.563Z,0.77
2022-09-21T10:26:56.792Z,0.20
2022-09-21T10:29:23.980Z,0.30
2022-09-21T10:31:54.448Z,0.40
2022-09-21T10:34:22.138Z,0.30
2022-09-21T10:36:57.092Z,0.37
2022-09-21T10:39:30.156Z,0.40
2022-09-21T10:42:05.052Z,0.33
2022-09-21T10:44:40.956Z,0.30
2022-09-21T10:47:19.494Z,0.30
2022-09-21T10:49:50.819Z,0.30
2022-09-21T10:52:21.417Z,0.30
2022-09-21T10:54:52.294Z,0.13
2022-09-21T10:57:23.270Z,0.10
2022-09-21T10:59:51.087Z,0.30
2022-09-21T11:02:24.121Z,0.47
2022-09-21T11:04:57.446Z,0.30
2022-09-21T11:07:31.764Z,0.20
2022-09-21T11:10:34.089Z,0.33
2022-09-21T11:13:23.236Z,0.30
2022-09-21T11:15:56.537Z,0.30
2022-09-21T11:18:42.413Z,0.33
2022-09-21T11:21:18.172Z,0.20
2022-09-21T11:24:10.642Z,0.47
2022-09-21T11:26:51.734Z,0.30
2022-09-21T11:29:29.195Z,0.25
2022-09-21T11:32:21.665Z,0.30
2022-09-21T11:35:27.034Z,0.30
2022-09-21T11:38:09.111Z,0.20
2022-09-21T11:40:54.484Z,0.40
2022-09-21T11:43:46.069Z,0.20
2022-09-21T11:46:30.368Z,0.20
2022-09-21T11:49:29.220Z,0.40
2022-09-21T11:52:10.673Z,0.40
2022-09-21T11:54:50.423Z,0.63
2022-09-21T11:57:28.749Z,0.30
2022-09-21T12:00:16.667Z,0.30
2022-09-21T12:02:55.288Z,0.30
2022-09-21T12:05:38.266Z,0.57
2022-09-21T12:08:43.574Z,0.80
2022-09-21T12:11:29.746Z,0.10
2022-09-21T12:14:02.363Z,0.30
2022-09-21T12:16:39.376Z,0.40
2022-09-21T12:19:16.642Z,0.20
2022-09-21T12:21:49.753Z,0.28
2022-09-21T12:24:22.257Z,0.30
2022-09-21T12:27:01.692Z,0.20
2022-09-21T12:29:31.412Z,0.35
2022-09-21T12:32:02.981Z,0.30
2022-09-21T12:34:47.763Z,0.50
2022-09-21T12:37:25.435Z,0.30
2022-09-21T12:40:03.775Z,0.40
2022-09-21T12:42:50.089Z,0.30
2022-09-21T12:45:22.020Z,0.47
2022-09-21T12:48:04.858Z,0.33
2022-09-21T12:50:48.534Z,0.30
2022-09-21T12:53:20.491Z,0.43
2022-09-21T12:56:22.504Z,0.50
2022-09-21T12:59:11.975Z,0.50
2022-09-21T13:02:12.247Z,0.35
2022-09-21T13:04:43.482Z,0.30
2022-09-21T13:07:44.372Z,0.55
2022-09-21T13:10:23.869Z,0.40
2022-09-21T13:13:02.361Z,0.43
2022-09-21T13:15:40.743Z,0.30
2022-09-21T13:18:25.047Z,0.90
2022-09-21T13:20:55.585Z,0.50
2022-09-21T13:23:55.024Z,0.50
2022-09-21T13:26:45.971Z,0.50
2022-09-21T13:29:22.272Z,0.65
2022-09-21T13:32:03.776Z,0.60
2022-09-21T13:34:36.348Z,0.50
2022-09-21T13:37:27.397Z,0.30
2022-09-21T13:40:06.470Z,0.60
2022-09-21T13:42:33.934Z,0.50
2022-09-21T13:45:15.708Z,0.57
2022-09-21T13:47:45.832Z,0.60
2022-09-21T13:50:42.744Z,0.50
2022-09-21T13:53:23.798Z,0.50
2022-09-21T13:55:56.858Z,0.60
2022-09-21T13:58:34.835Z,0.30
2022-09-21T14:04:36.778Z,0.60
2022-09-21T14:07:08.444Z,0.43
2022-09-21T14:10:03.501Z,0.60
2022-09-21T14:12:38.526Z,0.43
2022-09-21T14:15:18.235Z,0.47
2022-09-21T14:18:07.464Z,0.73
2022-09-21T14:20:39.510Z,0.67
2022-09-21T14:23:16.548Z,0.60
2022-09-21T14:26:19.362Z,0.50
2022-09-21T14:28:52.432Z,0.50
2022-09-21T14:31:26.718Z,0.83
2022-09-21T14:33:57.971Z,0.60
2022-09-21T14:36:34.604Z,1.00
2022-09-21T14:39:04.668Z,0.57
2022-09-21T14:41:41.140Z,0.63
2022-09-21T14:44:19.645Z,0.60
2022-09-21T14:46:46.560Z,0.40
2022-09-21T14:49:23.136Z,0.60
2022-09-21T14:52:12.588Z,0.73
2022-09-21T14:55:04.282Z,0.40
2022-09-21T14:57:48.718Z,0.63
2022-09-21T15:00:26.440Z,0.60
2022-09-21T15:03:39.296Z,0.43
2022-09-21T15:06:34.331Z,0.43
2022-09-21T15:09:26.071Z,0.97
2022-09-21T15:12:02.208Z,0.73
2022-09-21T15:14:46.473Z,0.87
2022-09-21T15:17:28.074Z,0.80
2022-09-21T15:20:01.224Z,0.30
2022-09-21T15:22:29.117Z,0.30
2022-09-21T15:24:59.213Z,0.57
2022-09-21T15:27:33.161Z,0.43
2022-09-21T15:30:03.808Z,0.60
2022-09-21T15:32:35.788Z,0.57
2022-09-21T15:35:06.999Z,0.70
2022-09-21T15:37:39.789Z,0.80
2022-09-21T15:40:17.375Z,0.80
2022-09-21T15:43:11.878Z,0.80
2022-09-21T15:46:03.982Z,0.90
2022-09-21T15:48:42.653Z,0.70
2022-09-21T15:51:24.904Z,0.80
2022-09-21T15:54:09.075Z,0.93
2022-09-21T15:56:40.841Z,1.10
2022-09-21T15:59:16.920Z,1.00
2022-09-21T16:01:57.812Z,0.73
2022-09-21T16:04:27.559Z,0.80
2022-09-21T16:07:04.737Z,1.13
2022-09-21T16:09:46.350Z,1.30
2022-09-21T16:12:45.206Z,0.83
2022-09-21T16:15:30.399Z,1.00
2022-09-21T16:18:07.690Z,1.13
2022-09-21T16:20:50.319Z,0.90
2022-09-21T16:23:23.442Z,1.03
2022-09-21T16:26:01.133Z,1.07
2022-09-21T16:28:29.831Z,0.90
2022-09-21T16:30:58.998Z,1.37
2022-09-21T16:33:39.043Z,0.93
2022-09-21T16:36:34.975Z,0.90
2022-09-21T16:39:06.492Z,0.80
2022-09-21T16:41:40.560Z,0.70
2022-09-21T16:44:21.120Z,1.20
2022-09-21T16:46:51.948Z,0.70
2022-09-21T16:49:20.951Z,0.90
2022-09-21T16:51:53.330Z,0.90
2022-09-21T16:54:25.451Z,1.00
2022-09-21T16:56:54.988Z,0.90
2022-09-21T16:59:23.740Z,0.67
2022-09-21T17:01:56.312Z,0.93
2022-09-21T17:04:29.040Z,1.10
2022-09-21T17:06:57.192Z,1.13
2022-09-21T17:09:29.472Z,1.10
2022-09-21T17:12:03.006Z,1.13
2022-09-21T17:14:40.891Z,0.70
2022-09-21T17:17:20.329Z,1.00
2022-09-21T17:19:50.087Z,0.70
2022-09-21T17:22:18.263Z,0.97
2022-09-21T17:24:52.327Z,0.90
2022-09-21T17:27:22.795Z,1.07
2022-09-21T17:29:51.028Z,0.90
2022-09-21T17:32:37.887Z,1.50
2022-09-21T17:35:28.935Z,1.40
2022-09-21T17:37:55.832Z,1.20
2022-09-21T17:40:25.081Z,1.00
2022-09-21T17:42:57.614Z,0.87
2022-09-21T17:45:50.591Z,1.13
2022-09-21T17:48:22.790Z,1.07
2022-09-21T17:50:51.155Z,1.10
2022-09-21T17:53:37.022Z,1.00
2022-09-21T17:56:15.357Z,1.20
2022-09-21T17:58:52.252Z,1.00
2022-09-21T18:01:29.363Z,1.23
2022-09-21T18:03:57.869Z,1.60
2022-09-21T18:06:26.122Z,1.27
2022-09-21T18:08:54.146Z,1.33
2022-09-21T18:11:43.171Z,1.40
2022-09-21T18:14:20.427Z,1.03
2022-09-21T18:17:08.498Z,2.40
2022-09-21T18:20:07.940Z,5.87
2022-09-21T18:23:01.811Z,3.00
2022-09-21T18:25:33.505Z,1.90
2022-09-21T18:28:12.514Z,1.87
2022-09-21T18:30:48.787Z,1.60
2022-09-21T18:33:49.272Z,1.60
2022-09-21T18:36:24.085Z,1.40
2022-09-21T18:39:10.446Z,2.07
2022-09-21T18:41:52.637Z,5.27
2022-09-21T18:44:46.555Z,4.40
2022-09-21T18:47:22.231Z,4.27
2022-09-21T18:50:06.753Z,2.80
2022-09-21T18:53:03.640Z,2.60
2022-09-21T18:55:34.218Z,2.10
2022-09-21T18:58:01.403Z,2.00
2022-09-21T19:00:34.971Z,1.97
2022-09-21T19:03:17.493Z,1.60
2022-09-21T19:06:26.411Z,1.97
2022-09-21T19:09:05.542Z,2.00
2022-09-21T19:11:38.370Z,2.30
2022-09-21T19:14:33.719Z,2.07
2022-09-21T19:17:29.876Z,2.00
2022-09-21T19:20:07.508Z,1.80
2022-09-21T19:22:53.870Z,1.90
2022-09-21T19:25:32.625Z,2.10
2022-09-21T19:28:08.218Z,2.10
2022-09-21T19:30:35.937Z,2.13
2022-09-21T19:33:48.457Z,2.20
2022-09-21T19:36:14.450Z,1.90
2022-09-21T19:38:42.250Z,2.13
2022-09-21T19:41:42.668Z,2.27
2022-09-21T19:44:37.442Z,2.00
2022-09-21T19:47:20.860Z,2.30
2022-09-21T19:49:50.446Z,3.27
2022-09-21T19:52:22.600Z,3.60
2022-09-21T19:55:08.881Z,3.40
2022-09-21T19:57:55.389Z,2.80
2022-09-21T20:00:24.298Z,2.87
2022-09-21T20:02:57.791Z,2.73
2022-09-21T20:05:45.710Z,2.40
2022-09-21T20:08:29.082Z,2.17
2022-09-21T20:11:07.131Z,2.20
2022-09-21T20:13:56.757Z,2.53
2022-09-21T20:16:50.583Z,3.10
2022-09-21T20:19:32.538Z,2.50
2022-09-21T20:22:05.103Z,2.33
2022-09-21T20:24:42.225Z,2.40
2022-09-21T20:27:34.850Z,2.17
2022-09-21T20:30:03.411Z,2.47
2022-09-21T20:32:32.345Z,2.10
2022-09-21T20:35:00.569Z,2.20
2022-09-21T20:37:30.568Z,2.30
2022-09-21T20:39:57.893Z,2.27
2022-09-21T20:42:26.992Z,2.20
2022-09-21T20:44:54.990Z,2.67
2022-09-21T20:47:21.872Z,2.47
2022-09-21T20:49:50.218Z,2.27
2022-09-21T20:52:18.236Z,2.53
2022-09-21T20:54:49.024Z,2.53
2022-09-21T20:57:20.620Z,2.50
2022-09-21T20:59:48.854Z,2.30
2022-09-21T21:02:16.792Z,2.20
2022-09-21T21:04:44.429Z,2.10
2022-09-21T21:07:12.466Z,2.30
2022-09-21T21:09:41.061Z,2.10
2022-09-21T21:12:09.472Z,2.10
2022-09-21T21:14:37.947Z,2.10
2022-09-21T21:17:06.395Z,2.07
2022-09-21T21:19:34.282Z,2.13
2022-09-21T21:22:02.447Z,2.20
2022-09-21T21:24:42.330Z,2.47
2022-09-21T21:27:17.399Z,2.43
2022-09-21T21:29:52.054Z,2.30
2022-09-21T21:32:24.160Z,2.30
2022-09-21T21:34:53.267Z,2.23
2022-09-21T21:37:24.161Z,2.77
2022-09-21T21:39:52.059Z,2.37
2022-09-21T21:42:24.387Z,2.37
2022-09-21T21:44:53.520Z,2.10
2022-09-21T21:47:38.641Z,2.30
2022-09-21T21:50:07.216Z,1.90
2022-09-21T21:52:35.858Z,1.90
2022-09-21T21:55:04.097Z,2.20
2022-09-21T21:57:32.774Z,1.80
2022-09-21T22:00:00.610Z,1.97
2022-09-21T22:02:29.803Z,2.20
2022-09-21T22:04:57.978Z,2.30
2022-09-21T22:07:25.741Z,2.30
2022-09-21T22:09:52.567Z,2.20
2022-09-21T22:12:20.390Z,1.87
2022-09-21T22:14:48.702Z,2.10
2022-09-21T22:17:16.746Z,2.20
2022-09-21T22:19:45.768Z,2.10
2022-09-21T22:22:13.054Z,2.10
2022-09-21T22:24:41.525Z,2.10
2022-09-21T22:27:08.539Z,2.20
2022-09-21T22:29:35.848Z,2.10
2022-09-21T22:32:02.707Z,2.10
2022-09-21T22:34:31.308Z,1.83
2022-09-21T22:36:59.620Z,2.53
2022-09-21T22:39:28.491Z,2.30
2022-09-21T22:41:55.540Z,1.67
2022-09-21T22:44:23.536Z,1.60
2022-09-21T22:46:50.332Z,1.57
2022-09-21T22:49:17.145Z,2.00
2022-09-21T22:51:44.653Z,1.90
2022-09-21T22:54:11.540Z,2.00
2022-09-21T22:56:38.384Z,2.20
2022-09-21T22:59:06.863Z,1.90
2022-09-21T23:01:37.682Z,2.20
2022-09-21T23:04:10.941Z,2.83
2022-09-21T23:06:40.581Z,2.03
2022-09-21T23:09:13.741Z,2.80
2022-09-21T23:11:43.316Z,2.73
2022-09-21T23:14:12.255Z,2.53
2022-09-21T23:16:39.499Z,2.77
2022-09-21T23:19:07.195Z,2.40
2022-09-21T23:21:34.633Z,2.50
2022-09-21T23:24:02.631Z,2.20
2022-09-21T23:26:32.167Z,2.20
2022-09-21T23:29:04.877Z,2.10
2022-09-21T23:31:33.117Z,2.70
2022-09-21T23:34:05.196Z,2.37
2022-09-21T23:36:33.812Z,2.20
2022-09-21T23:39:02.560Z,2.33
2022-09-21T23:41:33.099Z,2.40
2022-09-21T23:44:01.743Z,2.33
2022-09-21T23:46:34.789Z,2.03
2022-09-21T23:49:02.190Z,2.10
2022-09-21T23:51:33.154Z,2.20
2022-09-21T23:54:00.910Z,2.20
2022-09-21T23:56:28.705Z,2.10
2022-09-21T23:58:55.797Z,2.70
